createdAt,value
2022-08-17T00:02:26.069Z,21.52
2022-08-17T00:04:55.507Z,21.55
2022-08-17T00:07:24.402Z,21.56
2022-08-17T00:09:51.966Z,21.53
2022-08-17T00:12:41.715Z,21.51
2022-08-17T00:15:10.756Z,21.48
2022-08-17T00:17:38.806Z,21.45
2022-08-17T00:20:07.099Z,21.41
2022-08-17T00:22:36.912Z,21.41
2022-08-17T00:25:07.914Z,21.39
2022-08-17T00:27:35.529Z,21.36
2022-08-17T00:30:03.244Z,21.35
2022-08-17T00:33:15.647Z,21.34
2022-08-17T00:35:27.753Z,21.34
2022-08-17T00:37:56.617Z,21.32
2022-08-17T00:40:24.808Z,21.28
2022-08-17T00:42:53.586Z,21.23
2022-08-17T00:45:23.075Z,21.20
2022-08-17T00:47:50.610Z,21.21
2022-08-17T00:50:19.864Z,21.19
2022-08-17T00:52:54.768Z,21.12
2022-08-17T00:55:26.124Z,21.09
2022-08-17T00:57:58.449Z,21.07
2022-08-17T01:00:29.567Z,21.05
2022-08-17T01:03:01.061Z,21.04
2022-08-17T01:05:31.772Z,21.05
2022-08-17T01:08:01.136Z,21.01
2022-08-17T01:10:58.765Z,21.00
2022-08-17T01:13:28.604Z,20.97
2022-08-17T01:16:00.060Z,20.98
2022-08-17T01:18:28.301Z,20.98
2022-08-17T01:20:58.544Z,21.00
2022-08-17T01:23:28.807Z,20.96
2022-08-17T01:25:58.898Z,20.94
2022-08-17T01:28:33.656Z,20.87
2022-08-17T01:31:16.315Z,20.83
2022-08-17T01:33:43.898Z,20.79
2022-08-17T01:36:11.375Z,20.79
2022-08-17T01:38:40.662Z,20.78
2022-08-17T01:41:12.729Z,20.75
2022-08-17T01:43:45.272Z,20.73
2022-08-17T01:46:16.630Z,20.76
2022-08-17T01:48:47.305Z,20.75
2022-08-17T01:51:16.553Z,20.69
2022-08-17T01:53:50.024Z,20.58
2022-08-17T01:56:20.710Z,20.50
2022-08-17T01:58:48.620Z,20.46
2022-08-17T02:01:17.791Z,20.45
2022-08-17T02:03:59.294Z,20.43
2022-08-17T02:06:30.156Z,20.41
2022-08-17T02:09:02.850Z,20.35
2022-08-17T02:11:32.909Z,20.35
2022-08-17T02:14:03.704Z,20.33
2022-08-17T02:16:37.470Z,20.32
2022-08-17T02:19:06.776Z,20.32
2022-08-17T02:21:34.409Z,20.29
2022-08-17T02:24:04.229Z,20.25
2022-08-17T02:26:31.806Z,20.23
2022-08-17T02:28:59.364Z,20.23
2022-08-17T02:31:26.886Z,20.26
2022-08-17T02:34:00.594Z,20.28
2022-08-17T02:36:32.231Z,20.31
2022-08-17T02:39:00.710Z,20.32
2022-08-17T02:41:29.531Z,20.23
2022-08-17T02:43:57.126Z,20.19
2022-08-17T02:46:24.872Z,20.16
2022-08-17T02:48:52.348Z,20.18
2022-08-17T02:51:20.026Z,20.19
2022-08-17T02:53:47.709Z,20.20
2022-08-17T02:56:15.234Z,20.20
2022-08-17T02:58:44.219Z,20.19
2022-08-17T03:01:12.671Z,20.19
2022-08-17T03:03:40.780Z,20.19
2022-08-17T03:06:09.070Z,20.18
2022-08-17T03:08:38.041Z,20.18
2022-08-17T03:11:06.010Z,20.13
2022-08-17T03:13:34.041Z,20.05
2022-08-17T03:16:03.077Z,20.00
2022-08-17T03:18:30.628Z,19.98
2022-08-17T03:21:00.548Z,19.97
2022-08-17T03:23:29.544Z,19.99
2022-08-17T03:25:58.823Z,19.98
2022-08-17T03:28:28.163Z,19.99
2022-08-17T03:30:55.814Z,19.97
2022-08-17T03:33:24.617Z,19.95
2022-08-17T03:35:52.602Z,19.93
2022-08-17T03:38:20.319Z,19.91
2022-08-17T03:40:58.554Z,19.91
2022-08-17T03:43:29.177Z,19.89
2022-08-17T03:46:34.660Z,19.88
2022-08-17T03:49:23.632Z,19.87
2022-08-17T03:52:08.979Z,19.91
2022-08-17T03:54:54.332Z,19.93
2022-08-17T03:57:21.980Z,19.93
2022-08-17T03:59:49.603Z,19.92
2022-08-17T04:02:22.198Z,19.92
2022-08-17T04:04:52.416Z,19.94
2022-08-17T04:07:20.392Z,19.97
2022-08-17T04:09:47.990Z,20.00
2022-08-17T04:12:16.257Z,20.06
2022-08-17T04:14:53.540Z,20.11
2022-08-17T04:17:24.867Z,20.21
2022-08-17T04:19:54.759Z,20.29
2022-08-17T04:22:32.978Z,20.41
2022-08-17T04:25:06.904Z,20.58
2022-08-17T04:27:34.528Z,20.66
2022-08-17T04:30:02.137Z,20.74
2022-08-17T04:33:03.393Z,21.00
2022-08-17T04:35:23.295Z,21.20
2022-08-17T04:37:51.657Z,21.43
2022-08-17T04:40:38.361Z,21.71
2022-08-17T04:43:08.659Z,22.10
2022-08-17T04:45:40.487Z,22.34
2022-08-17T04:48:23.423Z,22.50
2022-08-17T04:51:00.058Z,22.58
2022-08-17T04:53:28.136Z,22.54
2022-08-17T04:55:57.663Z,22.46
2022-08-17T04:58:25.464Z,22.44
2022-08-17T05:00:53.093Z,22.41
2022-08-17T05:03:20.811Z,22.39
2022-08-17T05:05:49.660Z,22.42
2022-08-17T05:08:20.693Z,22.47
2022-08-17T05:10:49.704Z,22.50
2022-08-17T05:13:19.179Z,22.54
2022-08-17T05:15:48.361Z,22.61
2022-08-17T05:18:16.487Z,22.68
2022-08-17T05:20:45.465Z,22.76
2022-08-17T05:23:17.670Z,22.84
2022-08-17T05:25:48.786Z,22.93
2022-08-17T05:28:23.450Z,23.00
2022-08-17T05:30:55.892Z,23.09
2022-08-17T05:33:25.088Z,23.19
2022-08-17T05:35:55.672Z,23.30
2022-08-17T05:38:25.753Z,23.36
2022-08-17T05:40:55.705Z,23.47
2022-08-17T05:43:25.628Z,23.60
2022-08-17T05:46:01.260Z,23.83
2022-08-17T05:48:35.275Z,24.02
2022-08-17T05:51:27.416Z,24.34
2022-08-17T05:54:03.585Z,24.69
2022-08-17T05:56:56.688Z,25.21
2022-08-17T05:59:32.734Z,25.75
2022-08-17T06:02:06.845Z,26.32
2022-08-17T06:04:48.193Z,26.85
2022-08-17T06:07:21.868Z,27.40
2022-08-17T06:09:54.703Z,27.57
2022-08-17T06:12:37.645Z,28.17
2022-08-17T06:15:23.860Z,28.68
2022-08-17T06:17:56.365Z,28.95
2022-08-17T06:20:26.568Z,29.31
2022-08-17T06:22:59.486Z,29.59
2022-08-17T06:25:34.490Z,30.12
2022-08-17T06:28:06.822Z,30.50
2022-08-17T06:31:00.854Z,30.90
2022-08-17T06:33:34.221Z,31.11
2022-08-17T06:36:11.232Z,31.34
2022-08-17T06:38:54.761Z,31.79
2022-08-17T06:41:31.476Z,32.05
2022-08-17T06:44:43.151Z,32.41
2022-08-17T06:47:08.959Z,32.47
2022-08-17T06:49:44.283Z,32.46
2022-08-17T06:52:42.315Z,32.59
2022-08-17T06:55:18.760Z,32.51
2022-08-17T06:57:50.793Z,32.48
2022-08-17T07:00:23.173Z,32.63
2022-08-17T07:02:55.933Z,32.71
2022-08-17T07:05:27.471Z,32.79
2022-08-17T07:08:05.090Z,32.07
2022-08-17T07:10:38.897Z,31.96
2022-08-17T07:13:26.340Z,32.42
2022-08-17T07:16:05.557Z,32.02
2022-08-17T07:18:34.195Z,31.94
2022-08-17T07:21:17.502Z,31.68
2022-08-17T07:24:01.697Z,31.49
2022-08-17T07:26:29.546Z,31.61
2022-08-17T07:28:57.264Z,31.71
2022-08-17T07:31:27.558Z,31.94
2022-08-17T07:34:06.871Z,32.15
2022-08-17T07:36:35.294Z,31.90
2022-08-17T07:39:05.134Z,32.22
2022-08-17T07:41:53.186Z,32.36
2022-08-17T07:44:26.424Z,32.26
2022-08-17T07:47:13.555Z,32.05
2022-08-17T07:49:44.635Z,31.96
2022-08-17T07:52:51.217Z,32.31
2022-08-17T07:55:27.712Z,32.56
2022-08-17T07:57:57.825Z,32.70
2022-08-17T08:00:31.807Z,32.31
2022-08-17T08:03:27.093Z,32.26
2022-08-17T08:06:01.178Z,32.64
2022-08-17T08:08:34.144Z,32.79
2022-08-17T08:11:08.112Z,33.25
2022-08-17T08:13:40.419Z,33.55
2022-08-17T08:16:22.596Z,33.79
2022-08-17T08:18:56.942Z,34.05
2022-08-17T08:21:34.314Z,34.01
2022-08-17T08:24:18.393Z,34.33
2022-08-17T08:26:55.516Z,34.80
2022-08-17T08:29:30.911Z,34.98
2022-08-17T08:32:06.657Z,35.13
2022-08-17T08:35:01.658Z,34.83
2022-08-17T08:37:43.466Z,34.61
2022-08-17T08:40:32.348Z,34.07
2022-08-17T08:43:17.773Z,33.97
2022-08-17T08:45:56.591Z,34.11
2022-08-17T08:48:56.244Z,34.48
2022-08-17T08:51:41.011Z,34.32
2022-08-17T08:54:26.501Z,34.95
2022-08-17T08:57:23.236Z,35.23
2022-08-17T09:00:06.918Z,35.59
2022-08-17T09:03:04.772Z,35.71
2022-08-17T09:05:38.214Z,35.79
2022-08-17T09:08:21.587Z,35.54
2022-08-17T09:10:58.610Z,35.39
2022-08-17T09:13:39.856Z,35.65
2022-08-17T09:16:15.182Z,35.86
2022-08-17T09:19:00.613Z,36.02
2022-08-17T09:21:47.908Z,36.07
2022-08-17T09:24:24.010Z,36.23
2022-08-17T09:26:58.905Z,36.43
2022-08-17T09:29:29.847Z,36.33
2022-08-17T09:31:59.694Z,36.20
2022-08-17T09:34:34.685Z,36.15
2022-08-17T09:37:19.736Z,36.31
2022-08-17T09:39:56.218Z,36.12
2022-08-17T09:42:31.203Z,36.43
2022-08-17T09:45:10.694Z,36.55
2022-08-17T09:47:45.515Z,36.20
2022-08-17T09:51:05.378Z,36.24
2022-08-17T09:53:09.629Z,35.75
2022-08-17T09:55:51.215Z,35.92
2022-08-17T09:58:25.672Z,36.13
2022-08-17T10:01:02.710Z,36.21
2022-08-17T10:03:59.409Z,35.99
2022-08-17T10:06:31.693Z,35.80
2022-08-17T10:09:08.330Z,35.25
2022-08-17T10:12:02.304Z,35.43
2022-08-17T10:14:36.326Z,35.52
2022-08-17T10:17:15.390Z,35.95
2022-08-17T10:19:50.099Z,36.09
2022-08-17T10:22:54.781Z,36.32
2022-08-17T10:25:54.576Z,36.41
2022-08-17T10:28:30.455Z,36.76
2022-08-17T10:31:33.700Z,37.14
2022-08-17T10:34:07.808Z,36.74
2022-08-17T10:36:48.024Z,36.48
2022-08-17T10:39:24.758Z,37.03
2022-08-17T10:41:57.183Z,36.18
2022-08-17T10:44:41.408Z,35.49
2022-08-17T10:47:11.589Z,35.67
2022-08-17T10:49:47.522Z,35.92
2022-08-17T10:52:48.640Z,36.00
2022-08-17T10:55:20.299Z,35.95
2022-08-17T10:57:50.634Z,35.98
2022-08-17T11:00:58.849Z,36.05
2022-08-17T11:03:27.747Z,35.40
2022-08-17T11:06:12.710Z,35.01
2022-08-17T11:09:06.028Z,34.64
2022-08-17T11:11:50.908Z,34.48
2022-08-17T11:14:34.851Z,34.10
2022-08-17T11:17:21.631Z,34.08
2022-08-17T11:20:08.694Z,34.36
2022-08-17T11:22:58.007Z,34.34
2022-08-17T11:25:34.966Z,34.32
2022-08-17T11:28:08.680Z,34.34
2022-08-17T11:30:48.664Z,33.82
2022-08-17T11:34:02.270Z,33.31
2022-08-17T11:36:41.367Z,33.25
2022-08-17T11:39:33.695Z,32.72
2022-08-17T11:42:06.342Z,32.48
2022-08-17T11:44:45.793Z,32.05
2022-08-17T11:48:02.229Z,32.12
2022-08-17T11:51:05.952Z,32.38
2022-08-17T11:56:59.138Z,32.65
2022-08-17T11:59:55.255Z,32.68
2022-08-17T12:02:47.396Z,32.62
2022-08-17T12:05:33.988Z,32.23
2022-08-17T12:08:15.905Z,32.25
2022-08-17T12:10:55.264Z,32.05
2022-08-17T12:13:23.837Z,31.96
2022-08-17T12:16:02.266Z,31.82
2022-08-17T12:18:35.762Z,31.72
2022-08-17T12:21:24.321Z,31.65
2022-08-17T12:24:03.235Z,31.92
2022-08-17T12:26:33.550Z,32.19
2022-08-17T12:29:02.971Z,31.96
2022-08-17T12:31:35.502Z,31.84
2022-08-17T12:34:04.339Z,31.73
2022-08-17T12:36:34.032Z,31.53
2022-08-17T12:39:13.066Z,31.42
2022-08-17T12:41:45.339Z,31.45
2022-08-17T12:44:17.082Z,31.48
2022-08-17T12:46:53.199Z,31.43
2022-08-17T12:49:25.187Z,31.43
2022-08-17T12:52:01.158Z,31.30
2022-08-17T12:54:39.037Z,31.22
2022-08-17T12:57:13.375Z,31.22
2022-08-17T12:59:44.013Z,31.25
2022-08-17T13:02:22.743Z,31.07
2022-08-17T13:04:50.456Z,31.10
2022-08-17T13:07:35.153Z,31.05
2022-08-17T13:10:05.298Z,30.99
2022-08-17T13:12:35.953Z,31.13
2022-08-17T13:15:03.999Z,31.16
2022-08-17T13:17:35.627Z,31.19
2022-08-17T13:20:06.212Z,31.32
2022-08-17T13:22:33.870Z,31.34
2022-08-17T13:25:07.411Z,31.40
2022-08-17T13:27:35.110Z,31.46
2022-08-17T13:30:08.915Z,31.55
2022-08-17T13:32:43.734Z,31.66
2022-08-17T13:35:39.492Z,31.76
2022-08-17T13:38:09.709Z,31.88
2022-08-17T13:40:44.149Z,31.93
2022-08-17T13:43:12.945Z,32.00
2022-08-17T13:45:51.644Z,32.12
2022-08-17T13:48:28.914Z,32.32
2022-08-17T13:51:08.593Z,32.43
2022-08-17T13:53:52.103Z,32.54
2022-08-17T13:56:37.140Z,32.56
2022-08-17T13:59:09.781Z,32.45
2022-08-17T14:01:40.105Z,32.59
2022-08-17T14:04:09.917Z,32.71
2022-08-17T14:06:53.825Z,32.84
2022-08-17T14:09:24.521Z,32.91
2022-08-17T14:11:55.056Z,32.85
2022-08-17T14:14:23.572Z,32.88
2022-08-17T14:16:51.477Z,32.92
2022-08-17T14:19:19.213Z,32.91
2022-08-17T14:21:47.835Z,32.84
2022-08-17T14:24:21.019Z,32.71
2022-08-17T14:26:48.710Z,32.64
2022-08-17T14:29:17.568Z,32.51
2022-08-17T14:31:53.393Z,32.42
2022-08-17T14:34:22.943Z,32.28
2022-08-17T14:36:50.736Z,32.28
2022-08-17T14:39:19.286Z,32.37
2022-08-17T14:41:47.540Z,32.35
2022-08-17T14:44:17.111Z,32.20
2022-08-17T14:46:45.996Z,32.26
2022-08-17T14:49:16.069Z,32.31
2022-08-17T14:51:44.647Z,32.35
2022-08-17T14:54:33.189Z,32.34
2022-08-17T14:57:09.359Z,32.48
2022-08-17T14:59:53.396Z,32.52
2022-08-17T15:02:30.251Z,32.40
2022-08-17T15:05:01.746Z,32.31
2022-08-17T15:07:30.929Z,32.23
2022-08-17T15:09:58.870Z,32.15
2022-08-17T15:12:32.219Z,32.08
2022-08-17T15:15:04.690Z,32.03
2022-08-17T15:17:45.000Z,31.92
2022-08-17T15:20:15.737Z,31.88
2022-08-17T15:22:45.066Z,31.79
2022-08-17T15:25:13.245Z,31.71
2022-08-17T15:27:40.815Z,31.70
2022-08-17T15:30:11.689Z,31.71
2022-08-17T15:32:41.353Z,31.70
2022-08-17T15:35:27.330Z,31.61
2022-08-17T15:37:56.599Z,31.61
2022-08-17T15:40:25.034Z,31.51
2022-08-17T15:42:52.666Z,31.52
2022-08-17T15:45:24.907Z,31.49
2022-08-17T15:47:53.124Z,31.45
2022-08-17T15:50:20.847Z,31.48
2022-08-17T15:52:54.700Z,31.47
2022-08-17T15:55:24.234Z,31.44
2022-08-17T15:57:53.030Z,31.42
2022-08-17T16:00:23.948Z,31.38
2022-08-17T16:03:46.395Z,31.40
2022-08-17T16:05:40.763Z,31.38
2022-08-17T16:08:10.836Z,31.27
2022-08-17T16:10:38.510Z,31.20
2022-08-17T16:13:06.097Z,31.20
2022-08-17T16:15:56.779Z,31.15
2022-08-17T16:18:27.378Z,31.01
2022-08-17T16:20:55.214Z,30.94
2022-08-17T16:23:23.042Z,30.87
2022-08-17T16:25:53.202Z,30.88
2022-08-17T16:28:27.488Z,30.81
2022-08-17T16:31:24.729Z,30.78
2022-08-17T16:34:16.427Z,30.78
2022-08-17T16:36:41.068Z,30.75
2022-08-17T16:39:21.273Z,30.71
2022-08-17T16:41:50.322Z,30.66
2022-08-17T16:44:22.074Z,30.63
2022-08-17T16:46:51.138Z,30.63
2022-08-17T16:49:25.770Z,30.60
2022-08-17T16:52:05.182Z,30.45
2022-08-17T16:54:33.421Z,30.32
2022-08-17T16:57:01.156Z,30.23
2022-08-17T16:59:31.381Z,30.18
2022-08-17T17:02:10.695Z,30.16
2022-08-17T17:04:44.198Z,30.14
2022-08-17T17:07:35.231Z,30.10
2022-08-17T17:10:08.370Z,30.02
2022-08-17T17:13:03.774Z,29.90
2022-08-17T17:15:34.603Z,29.83
2022-08-17T17:18:06.968Z,29.76
2022-08-17T17:20:45.776Z,29.71
2022-08-17T17:23:28.988Z,29.66
2022-08-17T17:26:04.008Z,29.60
2022-08-17T17:28:43.346Z,29.56
2022-08-17T17:31:16.818Z,29.57
2022-08-17T17:33:48.860Z,29.57
2022-08-17T17:36:25.180Z,29.59
2022-08-17T17:38:55.199Z,29.59
2022-08-17T17:41:29.092Z,29.57
2022-08-17T17:44:03.025Z,29.54
2022-08-17T17:46:35.137Z,29.52
2022-08-17T17:49:05.891Z,29.43
2022-08-17T17:52:09.202Z,29.35
2022-08-17T17:54:39.986Z,29.36
2022-08-17T17:57:17.640Z,29.36
2022-08-17T17:59:57.489Z,29.34
2022-08-17T18:02:52.580Z,29.31
2022-08-17T18:05:58.404Z,29.29
2022-08-17T18:08:44.258Z,29.20
2022-08-17T18:11:24.682Z,29.07
2022-08-17T18:14:06.478Z,28.98
2022-08-17T18:16:35.428Z,28.87
2022-08-17T18:19:02.967Z,28.77
2022-08-17T18:21:37.851Z,28.61
2022-08-17T18:24:07.751Z,28.51
2022-08-17T18:26:45.408Z,28.41
2022-08-17T18:29:22.042Z,28.38
2022-08-17T18:31:52.493Z,28.37
2022-08-17T18:34:45.771Z,28.36
2022-08-17T18:37:27.426Z,28.35
2022-08-17T18:39:55.046Z,28.29
2022-08-17T18:42:27.178Z,28.21
2022-08-17T18:44:55.853Z,28.17
2022-08-17T18:47:25.850Z,28.14
2022-08-17T18:49:57.629Z,28.12
2022-08-17T18:52:29.544Z,28.09
2022-08-17T18:55:12.810Z,28.05
2022-08-17T18:57:44.097Z,28.04
2022-08-17T19:00:14.647Z,28.04
2022-08-17T19:02:52.277Z,28.02
2022-08-17T19:05:35.273Z,27.95
2022-08-17T19:08:21.345Z,27.89
2022-08-17T19:10:52.372Z,27.83
2022-08-17T19:13:24.667Z,27.75
2022-08-17T19:16:11.611Z,27.57
2022-08-17T19:18:47.331Z,27.38
2022-08-17T19:21:20.561Z,27.27
2022-08-17T19:23:55.141Z,27.14
2022-08-17T19:26:50.586Z,27.04
2022-08-17T19:29:19.496Z,26.91
2022-08-17T19:31:50.210Z,26.81
2022-08-17T19:34:29.919Z,26.71
2022-08-17T19:37:06.871Z,26.56
2022-08-17T19:39:51.859Z,26.44
2022-08-17T19:42:33.879Z,26.30
2022-08-17T19:45:08.482Z,26.18
2022-08-17T19:47:54.778Z,25.96
2022-08-17T19:50:41.337Z,25.85
2022-08-17T19:53:20.164Z,25.77
2022-08-17T19:55:58.117Z,25.76
2022-08-17T19:58:38.745Z,25.79
2022-08-17T20:01:13.182Z,25.81
2022-08-17T20:03:52.844Z,25.85
2022-08-17T20:06:22.449Z,25.88
2022-08-17T20:08:59.153Z,25.87
2022-08-17T20:11:34.670Z,25.86
2022-08-17T20:14:08.424Z,25.84
2022-08-17T20:16:36.001Z,25.80
2022-08-17T20:19:08.775Z,25.74
2022-08-17T20:21:43.728Z,25.63
2022-08-17T20:24:20.895Z,25.61
2022-08-17T20:26:58.412Z,25.57
2022-08-17T20:29:39.803Z,25.52
2022-08-17T20:32:26.710Z,25.49
2022-08-17T20:35:27.246Z,25.43
2022-08-17T20:38:02.047Z,25.38
2022-08-17T20:40:34.010Z,25.29
2022-08-17T20:43:51.418Z,25.23
2022-08-17T20:46:40.704Z,25.18
2022-08-17T20:49:24.980Z,25.13
2022-08-17T20:52:01.449Z,25.08
2022-08-17T20:54:44.229Z,25.01
2022-08-17T20:57:47.291Z,24.91
2022-08-17T21:00:41.841Z,24.86
2022-08-17T21:03:50.105Z,24.82
2022-08-17T21:06:21.647Z,24.81
2022-08-17T21:08:54.206Z,24.79
2022-08-17T21:11:56.808Z,24.71
2022-08-17T21:14:56.145Z,24.57
2022-08-17T21:17:41.811Z,24.49
2022-08-17T21:20:27.028Z,24.43
2022-08-17T21:23:13.455Z,24.35
2022-08-17T21:26:03.341Z,24.30
2022-08-17T21:29:00.861Z,24.25
2022-08-17T21:31:34.323Z,24.19
2022-08-17T21:34:26.509Z,24.16
2022-08-17T21:36:56.771Z,24.13
2022-08-17T21:39:33.202Z,24.11
2022-08-17T21:42:01.363Z,24.11
2022-08-17T21:44:34.781Z,24.10
2022-08-17T21:47:20.170Z,24.07
2022-08-17T21:49:48.152Z,24.06
2022-08-17T21:52:19.329Z,24.01
2022-08-17T21:54:52.129Z,23.98
2022-08-17T21:57:23.981Z,23.95
2022-08-17T21:59:54.434Z,23.91
2022-08-17T22:02:25.833Z,23.82
2022-08-17T22:04:58.840Z,23.78
2022-08-17T22:07:40.663Z,23.75
2022-08-17T22:10:27.827Z,23.73
2022-08-17T22:13:16.593Z,23.70
2022-08-17T22:15:47.457Z,23.69
2022-08-17T22:18:20.078Z,23.68
2022-08-17T22:20:53.373Z,23.66
2022-08-17T22:23:46.999Z,23.62
2022-08-17T22:26:16.887Z,23.46
2022-08-17T22:28:46.648Z,23.39
2022-08-17T22:31:16.727Z,23.29
2022-08-17T22:33:47.865Z,23.19
2022-08-17T22:36:24.477Z,23.16
2022-08-17T22:38:56.291Z,23.11
2022-08-17T22:41:35.430Z,23.06
2022-08-17T22:44:20.316Z,23.02
2022-08-17T22:47:03.678Z,22.99
2022-08-17T22:49:34.202Z,22.97
2022-08-17T22:52:21.953Z,22.92
2022-08-17T22:55:18.068Z,22.88
2022-08-17T22:58:05.013Z,22.84
2022-08-17T23:00:38.225Z,22.82
2022-08-17T23:03:12.110Z,22.78
2022-08-17T23:05:41.882Z,22.74
2022-08-17T23:08:11.262Z,22.70
2022-08-17T23:10:41.268Z,22.65
2022-08-17T23:13:11.856Z,22.63
2022-08-17T23:15:41.204Z,22.60
2022-08-17T23:18:08.608Z,22.56
2022-08-17T23:20:38.180Z,22.52
2022-08-17T23:23:07.590Z,22.51
2022-08-17T23:25:35.568Z,22.52
2022-08-17T23:28:05.509Z,22.53
2022-08-17T23:30:34.542Z,22.50
2022-08-17T23:33:03.204Z,22.49
2022-08-17T23:35:39.167Z,22.47
2022-08-17T23:38:08.148Z,22.44
2022-08-17T23:40:35.575Z,22.39
2022-08-17T23:43:06.049Z,22.36
2022-08-17T23:45:45.034Z,22.35
2022-08-17T23:48:12.489Z,22.34
2022-08-17T23:50:55.311Z,22.34
2022-08-17T23:53:25.025Z,22.32
2022-08-17T23:56:03.984Z,22.29
2022-08-17T23:58:39.645Z,22.28
